Flight Track Log - Related Links

Times and Time Zones

All times are in EDT time to prevent confusion due to time zone crossing. See the AMF1026 flight status page for this flight to view local times or setup timezone preferences in your user account.

Time Position Orientation Groundspeed Altitude Reporting Facility
EDT Latitude Longitude Course Direction KTS MPH feet Rate Location/Type
Fri 08:38:14 PM 42.7672 -73.8061 344° North 154 177 1,200  Level Boston Center
Fri 08:38:44 PM 42.7903 -73.8150 344° North 163 188 2,100 1,648 Climbing Boston Center
Fri 08:39:45 PM 42.7811 -73.8828 260° West 198 228 3,700 1,512 Climbing Boston Center
Fri 08:40:51 PM 42.7717 -73.9617 261° West 202 232 5,300 1,429 Climbing Boston Center
Fri 08:41:51 PM 42.7642 -74.0408 263° West 218 251 6,700 1,300 Climbing Boston Center
Fri 08:42:51 PM 42.7614 -74.1000 266° West 210 242 7,900 1,318 Climbing Boston Center
Fri 08:44:03 PM 42.7556 -74.2017 266° West 217 250 9,600 1,292 Climbing Boston Center
Fri 08:45:15 PM 42.7481 -74.2864 263° West 217 250 11,000 1,273 Climbing Boston Center
Fri 08:46:15 PM 42.7192 -74.3872 249° West 222 255 12,400 1,450 Climbing Boston Center
Fri 08:47:15 PM 42.6969 -74.4656 249° West 222 255 13,900 1,250 Climbing Boston Center
Fri 08:48:15 PM 42.6769 -74.5383 250° West 222 255 14,900 1,000 Climbing Boston Center
Fri 08:49:15 PM 42.6528 -74.6111 246° West 217 250 15,900 600 Climbing Boston Center
Fri 08:50:15 PM 42.6325 -74.6836 249° West 225 259 16,100 100 Climbing Boston Center
Fri 08:51:15 PM 42.5994 -74.7783 245° Southwest 249 287 16,100  Level Boston Center
Fri 08:52:15 PM 42.5744 -74.8733 250° West 259 298 16,100  Level Boston Center
Fri 08:53:15 PM 42.5517 -74.9656 251° West 264 304 16,100  Level Boston Center
Fri 08:54:15 PM 42.5311 -75.0408 250° West 264 304 16,100  Level Boston Center
Fri 08:55:15 PM 42.4975 -75.1436 246° West 264 304 16,100  Level Boston Center
Fri 08:56:15 PM 42.4681 -75.2381 247° West 259 298 16,100  Level Boston Center
Fri 08:57:15 PM 42.4389 -75.3211 245° Southwest 259 298 16,100  Level Boston Center
Fri 08:59:08 PM 42.3842 -75.4700 244° Southwest 257 296 16,100  Level New York Center
Fri 09:00:05 PM 42.3558 -75.5522 245° Southwest 252 290 16,100  Level New York Center
Fri 09:01:06 PM 42.3272 -75.6397 246° West 252 290 16,100 -49 Level New York Center
Fri 09:02:07 PM 42.2986 -75.7272 246° West 257 296 16,000 -101 Descending New York Center
Fri 09:03:05 PM 42.2678 -75.8175 245° Southwest 262 302 15,900  Descending New York Center
Fri 09:04:05 PM 42.2397 -75.8936 244° Southwest 262 302 16,000  Climbing New York Center
Fri 09:05:06 PM 42.2039 -75.9972 245° Southwest 257 296 15,900  Descending New York Center
Fri 09:06:06 PM 42.1731 -76.0817 244° Southwest 257 296 16,000  Climbing New York Center
Fri 09:07:07 PM 42.1442 -76.1689 246° West 257 296 15,900  Descending New York Center
Fri 09:08:06 PM 42.1153 -76.2558 246° West 257 296 16,000  Climbing New York Center
Fri 09:09:05 PM 42.0842 -76.3400 244° Southwest 257 296 15,900 -50 Descending New York Center
Fri 09:10:05 PM 42.0553 -76.4242 245° Southwest 257 296 15,900  Level New York Center
Fri 09:11:06 PM 42.0261 -76.5136 246° West 257 296 15,900  Level New York Center
Fri 09:12:06 PM 41.9969 -76.5978 245° Southwest 257 296 15,900  Level New York Center
Fri 09:13:06 PM 41.9678 -76.6817 245° Southwest 257 296 15,900  Level New York Center
Fri 09:14:07 PM 41.9386 -76.7656 245° Southwest 257 296 15,900  Level New York Center
Fri 09:15:07 PM 41.9094 -76.8492 245° Southwest 252 290 15,900 56 Level New York Center
Fri 09:15:55 PM 41.8853 -76.9292 248° West 255 293 16,000  Climbing Cleveland Center
Fri 09:16:55 PM 41.8603 -76.9975 244° Southwest 255 293 15,900 -50 Descending Cleveland Center
Fri 09:17:55 PM 41.8294 -77.0828 244° Southwest 255 293 15,900  Level Cleveland Center
Fri 09:18:55 PM 41.8008 -77.1681 246° West 255 293 15,900  Level Cleveland Center
Fri 09:19:55 PM 41.7722 -77.2558 246° West 255 293 15,900  Level Cleveland Center
Fri 09:20:55 PM 41.7433 -77.3408 246° West 260 299 15,900  Level Cleveland Center
Fri 09:21:55 PM 41.7142 -77.4231 245° Southwest 260 299 15,900 50 Level Cleveland Center
Fri 09:22:55 PM 41.6789 -77.5053 240° Southwest 260 299 16,000 50 Climbing Cleveland Center
Fri 09:23:55 PM 41.6500 -77.5900 245° Southwest 265 305 16,000  Level Cleveland Center
Fri 09:24:55 PM 41.6147 -77.6806 243° Southwest 259 298 16,000  Level Cleveland Center
Fri 09:25:55 PM 41.5856 -77.7625 245° Southwest 259 298 16,000  Level Cleveland Center
Fri 09:26:55 PM 41.5583 -77.8469 247° West 259 298 16,000  Level Cleveland Center
Fri 09:27:55 PM 41.5269 -77.9314 244° Southwest 259 298 16,000  Level Cleveland Center
Fri 09:28:55 PM 41.4997 -78.0131 246° West 259 298 16,000  Level Cleveland Center
Fri 09:29:55 PM 41.4744 -78.0972 248° West 259 298 16,000  Level Cleveland Center
Fri 09:30:55 PM 41.4492 -78.1842 249° West 259 298 16,000  Level Cleveland Center
Fri 09:31:55 PM 41.4239 -78.2681 248° West 253 291 16,000  Level Cleveland Center
Fri 09:32:55 PM 41.3964 -78.3519 246° West 253 291 16,000  Level Cleveland Center
Fri 09:33:55 PM 41.3750 -78.4386 252° West 253 291 16,000  Level Cleveland Center
Fri 09:34:55 PM 41.3475 -78.5253 247° West 253 291 16,000  Level Cleveland Center
Fri 09:35:55 PM 41.3239 -78.6117 250° West 253 291 16,000  Level Cleveland Center
Fri 09:36:55 PM 41.2983 -78.6981 249° West 253 291 16,000  Level Cleveland Center
Fri 09:37:55 PM 41.2706 -78.7819 246° West 253 291 16,000  Level Cleveland Center
Fri 09:38:55 PM 41.2467 -78.8681 250° West 253 291 16,000  Level Cleveland Center
Fri 09:39:55 PM 41.2208 -78.9433 245° Southwest 253 291 16,000  Level Cleveland Center
Fri 09:40:55 PM 41.1928 -79.0269 246° West 253 291 16,000  Level Cleveland Center
Fri 09:41:55 PM 41.1667 -79.1158 249° West 253 291 16,000  Level Cleveland Center
Fri 09:42:55 PM 41.1408 -79.2017 248° West 253 291 16,000  Level Cleveland Center
Fri 09:43:55 PM 41.1147 -79.2961 250° West 253 291 16,000  Level Cleveland Center
Fri 09:44:55 PM 41.0906 -79.3819 250° West 253 291 16,000  Level Cleveland Center
Fri 09:45:55 PM 41.0622 -79.4650 246° West 253 291 16,000  Level Cleveland Center
Fri 09:46:55 PM 41.0361 -79.5508 248° West 253 291 16,000  Level Cleveland Center
Fri 09:47:55 PM 41.0097 -79.6339 247° West 253 291 16,000  Level Cleveland Center
Fri 09:48:55 PM 40.9811 -79.7194 246° West 253 291 16,000  Level Cleveland Center
Fri 09:49:55 PM 40.9506 -79.8050 245° Southwest 253 291 16,000  Level Cleveland Center
Fri 09:50:55 PM 40.9239 -79.8906 248° West 253 291 16,000  Level Cleveland Center
Fri 09:51:55 PM 40.8994 -79.9761 249° West 253 291 16,000  Level Cleveland Center
Fri 09:52:55 PM 40.8728 -80.0614 248° West 253 291 16,000  Level Cleveland Center
Fri 09:53:55 PM 40.8481 -80.1467 249° West 253 291 16,000  Level Cleveland Center
Fri 09:54:55 PM 40.8214 -80.2319 248° West 253 291 16,000  Level Cleveland Center
Fri 09:55:55 PM 40.7797 -80.3033 232° Southwest 253 291 16,000  Level Cleveland Center
Fri 09:56:55 PM 40.7361 -80.3803 233° Southwest 265 305 16,000  Level Cleveland Center
Fri 09:57:55 PM 40.7028 -80.4517 238° Southwest 263 303 16,000  Level Cleveland Center
Fri 09:58:55 PM 40.6633 -80.5311 237° Southwest 263 303 16,000  Level Cleveland Center
Fri 09:59:55 PM 40.6194 -80.6078 233° Southwest 257 296 16,000  Level Cleveland Center
Fri 10:00:55 PM 40.5800 -80.6842 236° Southwest 252 290 16,000  Level Cleveland Center
Fri 10:01:55 PM 40.5381 -80.7633 235° Southwest 257 296 16,000  Level Cleveland Center
Fri 10:02:55 PM 40.5025 -80.8344 237° Southwest 262 302 16,000  Level Cleveland Center
Fri 10:03:55 PM 40.4628 -80.9106 236° Southwest 262 302 16,000  Level Cleveland Center
Fri 10:04:55 PM 40.4228 -80.9867 235° Southwest 262 302 16,000  Level Cleveland Center
Fri 10:05:55 PM 40.3831 -81.0683 237° Southwest 262 302 16,000  Level Cleveland Center
Fri 10:06:55 PM 40.3408 -81.1442 234° Southwest 262 302 16,000  Level Cleveland Center
Fri 10:07:56 PM 40.2942 -81.2311 235° Southwest 259 298 16,000  Level Indianapolis Center
Fri 10:08:57 PM 40.2533 -81.3097 236° Southwest 258 297 16,000  Level Indianapolis Center
Fri 10:09:58 PM 40.2111 -81.3869 234° Southwest 258 297 16,000  Level Indianapolis Center
Fri 10:10:59 PM 40.1689 -81.4650 235° Southwest 260 299 16,000  Level Indianapolis Center
Fri 10:12:00 PM 40.1275 -81.5422 235° Southwest 258 297 16,000 -49 Level Indianapolis Center
Fri 10:13:01 PM 40.0853 -81.6211 235° Southwest 261 300 15,900 -49 Descending Indianapolis Center
Fri 10:14:02 PM 40.0433 -81.6983 235° Southwest 259 298 15,900  Level Indianapolis Center
Fri 10:15:04 PM 40.0011 -81.7783 235° Southwest 258 297 15,900  Level Indianapolis Center
Fri 10:16:05 PM 39.9597 -81.8575 236° Southwest 261 300 15,900  Level Indianapolis Center
Fri 10:17:06 PM 39.9233 -81.9378 239° Southwest 254 292 15,900  Level Indianapolis Center
Fri 10:18:07 PM 39.9006 -82.0239 251° West 251 289 15,900  Level Indianapolis Center
Fri 10:19:08 PM 39.8811 -82.1117 254° West 250 288 15,900  Level Indianapolis Center
Fri 10:20:09 PM 39.8611 -82.1983 253° West 248 285 15,900  Level Indianapolis Center
Fri 10:21:10 PM 39.8389 -82.2844 251° West 248 285 15,900  Level Indianapolis Center
Fri 10:22:11 PM 39.8142 -82.3703 249° West 252 290 15,900  Level Indianapolis Center
Fri 10:23:12 PM 39.7914 -82.4556 251° West 248 285 15,900  Level Indianapolis Center
Fri 10:24:13 PM 39.7683 -82.5403 251° West 247 284 15,900  Level Indianapolis Center
Fri 10:25:14 PM 39.7458 -82.6256 251° West 247 284 15,900  Level Indianapolis Center
Fri 10:26:15 PM 39.7236 -82.7103 251° West 246 283 15,900  Level Indianapolis Center
Fri 10:27:17 PM 39.6831 -82.7881 236° Southwest 255 293 15,900  Level Indianapolis Center
Fri 10:28:18 PM 39.6436 -82.8653 236° Southwest 255 293 15,900  Level Indianapolis Center
Fri 10:29:19 PM 39.6036 -82.9411 236° Southwest 251 289 15,900 -295 Level Indianapolis Center
Fri 10:30:20 PM 39.5631 -83.0178 236° Southwest 256 295 15,300 -836 Descending Indianapolis Center
Fri 10:31:21 PM 39.5167 -83.1019 234° Southwest 279 321 14,200 -1,131 Descending Indianapolis Center
Fri 10:32:22 PM 39.4725 -83.1867 236° Southwest 280 322 13,000 -1,230 Descending Indianapolis Center
Fri 10:33:23 PM 39.4433 -83.2806 248° West 280 322 11,700 -934 Descending Indianapolis Center
Fri 10:34:24 PM 39.4258 -83.3775 257° West 274 315 11,100 -553 Descending Indianapolis Center
Fri 10:34:39 PM 39.4147 -83.4133 248° West 264 304 11,000 -98 Descending Indianapolis Center
Fri 10:35:25 PM 39.3964 -83.4633 245° Southwest 262 302 11,000  Level Indianapolis Center
Fri 10:35:40 PM 39.3878 -83.4964 251° West 249 287 11,000 -484 Level Indianapolis Center
Fri 10:36:27 PM 39.3656 -83.5625 247° West 253 291 10,500 -522 Descending Indianapolis Center
Fri 10:37:35 PM 39.3336 -83.6625 248° West 263 303 10,000 -246 Descending Indianapolis Center
Fri 10:38:29 PM 39.3136 -83.7417 252° West 262 302 10,000 -52 Level Indianapolis Center
Fri 10:39:30 PM 39.2933 -83.8286 253° West 254 292 9,900 -49 Descending Indianapolis Center
Fri 10:40:31 PM 39.2703 -83.9150 251° West 251 289 9,900 49 Level Indianapolis Center
Fri 10:41:32 PM 39.2294 -83.9894 235° Southwest 252 290 10,000 -439 Climbing Indianapolis Center
Fri 10:42:34 PM 39.1839 -84.0614 231° Southwest 256 295 9,000 -1,024 Descending Indianapolis Center
Fri 10:43:35 PM 39.1358 -84.1325 229° Southwest 259 298 7,900 -984 Descending Indianapolis Center
Fri 10:44:36 PM 39.0886 -84.2014 229° Southwest 257 296 7,000 -443 Descending Indianapolis Center
Fri 10:45:37 PM 39.0431 -84.2661 228° Southwest 249 287 7,000  Level Indianapolis Center
Fri 10:46:38 PM 39.0003 -84.3325 230° Southwest 242 278 7,000 -585 Level Indianapolis Center
Fri 10:47:40 PM 38.9536 -84.3933 225° Southwest 239 275 5,800 -1,122 Descending Indianapolis Center
Fri 10:48:41 PM 38.9136 -84.4536 230° Southwest 227 261 4,700 -590 Descending Indianapolis Center
Fri 10:49:42 PM 38.8817 -84.5125 235° Southwest 224 258 4,600 -639 Descending Indianapolis Center
Fri 10:51:30 PM 38.9167 -84.6500 288° West 187 215 2,900 -828 Descending Cincinnati TRACON
Fri 10:52:36 PM 38.9667 -84.6667 345° North 160 184 2,200 -667 Descending Cincinnati TRACON
Fri 10:53:36 PM 39.0000 -84.6667 360° North 128 147 1,500 -600 Descending Cincinnati TRACON
Fri 10:54:36 PM 39.0333 -84.6667 360° North 115 132 1,000 -500 Descending Cincinnati TRACON

Login

Don't have an account? Register now (free) for customized features, flight alerts, and more!